Time;durP1;ratioP1;P1;durP2;ratioP2;P2;SDS_P1;SDS_P2;PMS_P1;PMS_P2;Temp;Humidity;BMP_temperature;BMP_pressure;BME280_temperature;BME280_humidity;BME280_pressure;Samples;Min_cycle;Max_cycle;Signal;HPM_P1;HPM_P2
2022/04/03 00:02:09;;;;;;;7.45;2.90;;;7.60;95.20;;;;;;5020073;28;20440;-69
2022/04/03 00:04:35;;;;;;;6.35;2.78;;;7.60;95.30;;;;;;5032196;28;20060;-69
2022/04/03 00:07:02;;;;;;;7.13;2.70;;;7.50;95.30;;;;;;5036700;28;20133;-69
2022/04/03 00:09:38;;;;;;;5.63;2.70;;;7.40;95.10;;;;;;5020537;28;20042;-70
2022/04/03 00:12:05;;;;;;;6.28;2.22;;;7.50;95.10;;;;;;5035847;28;20038;-70
2022/04/03 00:14:35;;;;;;;5.35;2.30;;;7.50;95.00;;;;;;5035923;28;20079;-70
2022/04/03 00:17:01;;;;;;;7.13;2.65;;;7.40;94.80;;;;;;5019237;28;20033;-69
2022/04/03 00:19:27;;;;;;;6.68;2.92;;;7.50;94.70;;;;;;5024253;28;20069;-69
2022/04/03 00:21:53;;;;;;;4.22;2.67;;;7.40;94.60;;;;;;5020453;28;20033;-69
2022/04/03 00:24:19;;;;;;;7.68;2.53;;;7.40;94.60;;;;;;5008490;28;20039;-69
2022/04/03 00:26:47;;;;;;;5.40;2.38;;;7.40;94.80;;;;;;5018838;28;20052;-70
2022/04/03 00:29:13;;;;;;;7.38;2.55;;;7.50;94.80;;;;;;5032146;28;20042;-70
2022/04/03 00:31:39;;;;;;;7.30;2.53;;;7.50;95.00;;;;;;5033094;28;20045;-69
2022/04/03 00:34:05;;;;;;;8.10;2.33;;;7.50;95.00;;;;;;5000925;28;20492;-69
2022/04/03 00:36:31;;;;;;;5.40;2.25;;;7.60;94.90;;;;;;5032139;28;20060;-69
2022/04/03 00:38:57;;;;;;;4.97;2.42;;;7.60;95.10;;;;;;5020532;28;20077;-70
2022/04/03 00:41:24;;;;;;;4.10;2.15;;;7.60;95.20;;;;;;5017203;28;20076;-70
2022/04/03 00:43:51;;;;;;;4.95;2.30;;;7.60;95.20;;;;;;5016280;28;20049;-69
2022/04/03 00:46:21;;;;;;;6.80;2.08;;;7.60;95.30;;;;;;5002884;28;20041;-70
2022/04/03 00:48:48;;;;;;;5.85;2.00;;;7.60;95.40;;;;;;5004023;28;20128;-70
2022/04/03 00:51:14;;;;;;;5.93;2.60;;;7.60;95.40;;;;;;5019713;28;20034;-69
2022/04/03 00:53:40;;;;;;;9.80;2.30;;;7.60;95.40;;;;;;5031899;28;20038;-69
2022/04/03 00:56:08;;;;;;;7.15;2.38;;;7.70;95.50;;;;;;5012245;28;20042;-69
2022/04/03 00:58:37;;;;;;;5.25;2.20;;;7.70;95.50;;;;;;5024471;28;20032;-69
2022/04/03 01:01:04;;;;;;;9.00;2.50;;;7.60;95.50;;;;;;5018824;28;20366;-69
2022/04/03 01:03:30;;;;;;;4.75;1.77;;;7.70;95.60;;;;;;5034079;28;20042;-69
2022/04/03 01:05:56;;;;;;;7.50;2.22;;;7.70;95.50;;;;;;5023988;28;20037;-68
2022/04/03 01:08:24;;;;;;;7.85;2.10;;;7.70;95.70;;;;;;5028666;28;20071;-69
2022/04/03 01:10:50;;;;;;;9.15;2.53;;;7.60;95.70;;;;;;5014710;28;20038;-69
2022/04/03 01:13:16;;;;;;;6.85;1.83;;;7.60;95.80;;;;;;5017347;28;20132;-69
2022/04/03 01:15:53;;;;;;;10.27;2.38;;;7.60;96.10;;;;;;5020097;28;20041;-70
2022/04/03 01:18:22;;;;;;;4.28;1.85;;;7.60;95.90;;;;;;5034121;28;20037;-70
2022/04/03 01:20:49;;;;;;;12.93;2.22;;;7.60;95.90;;;;;;4996799;28;20052;-69
2022/04/03 01:23:15;;;;;;;7.68;2.10;;;7.70;95.80;;;;;;5021441;28;20139;-69
2022/04/03 01:25:41;;;;;;;4.95;2.05;;;7.70;95.60;;;;;;5031191;28;20591;-69
2022/04/03 01:28:08;;;;;;;4.15;1.77;;;7.70;95.50;;;;;;5019973;28;20045;-70
2022/04/03 01:30:35;;;;;;;4.65;1.90;;;7.80;95.40;;;;;;5015440;28;20103;-71
2022/04/03 01:33:01;;;;;;;5.22;2.00;;;7.80;94.90;;;;;;5018271;28;20396;-68
2022/04/03 01:35:28;;;;;;;8.68;1.80;;;7.90;93.80;;;;;;5018608;28;20052;-69
2022/04/03 01:37:54;;;;;;;4.38;2.45;;;8.00;93.30;;;;;;5017878;28;20144;-69
2022/04/03 01:40:21;;;;;;;8.48;2.22;;;8.00;92.70;;;;;;5016017;28;20042;-69
2022/04/03 01:42:47;;;;;;;3.03;1.60;;;8.10;92.50;;;;;;5018502;28;20050;-69
2022/04/03 01:45:13;;;;;;;5.57;1.60;;;8.10;91.80;;;;;;5032810;28;20106;-69
2022/04/03 01:47:39;;;;;;;10.77;1.75;;;8.10;91.50;;;;;;5016077;28;20049;-69
2022/04/03 01:50:06;;;;;;;6.75;1.67;;;8.10;90.80;;;;;;5015310;28;20030;-69
2022/04/03 01:52:32;;;;;;;6.03;1.92;;;8.10;90.30;;;;;;5015537;28;20041;-69
2022/04/03 01:54:59;;;;;;;4.65;1.35;;;8.10;90.40;;;;;;5023012;28;20037;-69
2022/04/03 01:57:26;;;;;;;7.28;1.55;;;8.10;90.50;;;;;;5018347;28;20037;-69
2022/04/03 01:59:52;;;;;;;5.88;1.77;;;8.10;91.30;;;;;;5031797;28;20822;-69
2022/04/03 02:02:18;;;;;;;3.20;1.52;;;8.10;91.00;;;;;;5017526;28;20045;-69
2022/04/03 02:04:45;;;;;;;4.03;1.35;;;8.10;90.30;;;;;;5019680;28;21122;-69
2022/04/03 02:07:12;;;;;;;6.18;1.60;;;8.00;89.00;;;;;;5036069;28;20065;-69
2022/04/03 02:09:38;;;;;;;4.05;1.35;;;8.00;90.00;;;;;;5016768;28;20036;-69
2022/04/03 02:12:05;;;;;;;4.75;1.30;;;8.10;89.60;;;;;;5017577;28;20464;-70
2022/04/03 02:14:31;;;;;;;4.72;1.52;;;8.10;88.90;;;;;;5017301;28;20117;-68
2022/04/03 02:16:57;;;;;;;3.97;1.60;;;8.10;87.20;;;;;;5017476;28;20147;-69
2022/04/03 02:19:24;;;;;;;4.63;1.45;;;8.00;86.30;;;;;;5023315;28;20139;-69
2022/04/03 02:21:50;;;;;;;2.00;1.10;;;8.00;86.30;;;;;;5033273;28;20057;-68
2022/04/03 02:24:16;;;;;;;5.80;1.70;;;8.10;86.40;;;;;;5017848;28;20474;-70
2022/04/03 02:26:43;;;;;;;3.60;1.35;;;8.10;85.90;;;;;;5034749;28;20450;-69
2022/04/03 02:29:09;;;;;;;5.18;1.30;;;8.10;85.80;;;;;;5030414;28;20160;-69
2022/04/03 02:31:36;;;;;;;2.25;1.23;;;8.20;86.40;;;;;;5033870;28;20482;-69
2022/04/03 02:34:05;;;;;;;5.25;1.77;;;8.20;86.30;;;;;;5017839;28;20073;-70
2022/04/03 02:36:32;;;;;;;5.22;1.15;;;8.20;83.80;;;;;;4996594;28;20038;-69
2022/04/03 02:38:58;;;;;;;4.53;1.40;;;8.20;83.10;;;;;;5034612;28;20124;-70
2022/04/03 02:41:24;;;;;;;4.13;1.42;;;8.10;82.10;;;;;;5032796;28;20037;-69
2022/04/03 02:43:51;;;;;;;4.85;1.70;;;8.00;81.50;;;;;;5019325;28;20030;-68
2022/04/03 02:46:17;;;;;;;4.28;1.00;;;7.90;79.20;;;;;;5004171;28;20038;-68
2022/04/03 02:48:43;;;;;;;4.25;1.25;;;7.80;78.00;;;;;;4993966;28;20075;-69
2022/04/03 02:51:09;;;;;;;3.67;1.35;;;7.70;77.20;;;;;;5003743;28;20393;-69
2022/04/03 02:53:35;;;;;;;3.17;1.50;;;7.60;76.80;;;;;;5026911;28;20038;-69
2022/04/03 02:56:01;;;;;;;2.10;1.00;;;7.60;76.50;;;;;;5021963;28;20132;-69
2022/04/03 02:58:27;;;;;;;2.40;1.20;;;7.50;75.80;;;;;;5003316;28;20125;-69
2022/04/03 03:00:53;;;;;;;4.55;0.93;;;7.60;75.90;;;;;;5003232;28;20053;-69
2022/04/03 03:03:19;;;;;;;2.85;0.90;;;7.60;76.40;;;;;;5020199;28;20042;-69
2022/04/03 03:05:45;;;;;;;3.70;1.40;;;7.60;75.70;;;;;;5019498;28;20048;-69
2022/04/03 03:08:11;;;;;;;6.32;1.23;;;7.50;75.90;;;;;;5038391;28;20046;-69
2022/04/03 03:10:37;;;;;;;4.15;1.10;;;7.40;76.40;;;;;;5020456;28;20354;-69
2022/04/03 03:13:03;;;;;;;4.75;1.25;;;7.50;76.50;;;;;;5006130;28;20128;-69
2022/04/03 03:15:29;;;;;;;4.05;1.42;;;7.40;76.20;;;;;;5035597;28;20045;-69
2022/04/03 03:17:56;;;;;;;7.05;1.35;;;7.40;75.60;;;;;;5035598;28;20037;-69
2022/04/03 03:20:22;;;;;;;4.68;1.42;;;7.40;74.60;;;;;;5019864;28;20056;-69
2022/04/03 03:22:49;;;;;;;3.88;1.27;;;7.30;74.40;;;;;;5024802;28;20056;-69
2022/04/03 03:25:15;;;;;;;3.95;1.40;;;7.30;74.70;;;;;;5031383;28;20041;-70
2022/04/03 03:27:41;;;;;;;2.90;1.20;;;7.20;74.50;;;;;;5022999;28;20059;-69
2022/04/03 03:30:11;;;;;;;2.25;1.00;;;7.20;75.40;;;;;;5001499;28;20061;-69
2022/04/03 03:32:37;;;;;;;4.00;1.35;;;7.10;76.10;;;;;;5022965;28;20049;-69
2022/04/03 03:35:04;;;;;;;3.15;1.42;;;7.20;76.60;;;;;;4998221;28;20048;-70
2022/04/03 03:37:31;;;;;;;5.53;1.35;;;7.20;76.80;;;;;;5001749;28;20050;-69
2022/04/03 03:39:57;;;;;;;7.13;1.30;;;7.20;77.10;;;;;;5036412;28;20278;-69
2022/04/03 03:42:24;;;;;;;4.45;0.95;;;7.20;77.10;;;;;;5020631;28;20047;-71
2022/04/03 03:44:50;;;;;;;1.70;0.80;;;7.20;76.60;;;;;;5022058;28;20048;-70
2022/04/03 03:47:16;;;;;;;6.28;0.98;;;7.20;75.70;;;;;;4998971;28;20034;-69
2022/04/03 03:49:42;;;;;;;7.88;1.48;;;7.20;75.30;;;;;;5022258;28;20137;-69
2022/04/03 03:52:09;;;;;;;3.08;1.10;;;7.10;74.30;;;;;;5002291;28;20116;-69
2022/04/03 03:54:36;;;;;;;3.88;1.00;;;7.10;74.90;;;;;;5036328;28;20034;-69
2022/04/03 03:57:03;;;;;;;5.20;1.23;;;7.20;75.20;;;;;;5020185;28;20534;-70
2022/04/03 03:59:29;;;;;;;4.88;1.40;;;7.20;75.40;;;;;;5024559;28;20037;-69
2022/04/03 04:01:56;;;;;;;2.60;1.00;;;7.30;75.90;;;;;;5016366;28;20042;-69
2022/04/03 04:04:21;;;;;;;4.78;1.38;;;7.30;75.40;;;;;;5021223;28;20523;-69
2022/04/03 04:06:48;;;;;;;3.53;1.20;;;7.30;75.40;;;;;;5002872;28;20057;-69
2022/04/03 04:09:14;;;;;;;3.72;1.58;;;7.40;75.50;;;;;;5002946;28;20108;-69
2022/04/03 04:11:41;;;;;;;6.65;1.55;;;7.40;75.30;;;;;;5025163;28;20040;-69
2022/04/03 04:14:08;;;;;;;4.40;1.63;;;7.40;75.30;;;;;;5018492;28;20087;-70
2022/04/03 04:16:34;;;;;;;5.15;1.35;;;7.40;74.30;;;;;;5018293;28;20489;-68
2022/04/03 04:19:00;;;;;;;4.55;1.67;;;7.20;73.30;;;;;;5004283;28;20037;-69
2022/04/03 04:21:26;;;;;;;5.20;1.35;;;7.10;72.80;;;;;;5008241;28;20683;-69
2022/04/03 04:23:52;;;;;;;4.90;1.60;;;7.00;73.20;;;;;;5019396;28;20038;-69
2022/04/03 04:26:19;;;;;;;3.47;1.08;;;7.00;73.50;;;;;;5002595;28;20057;-69
2022/04/03 04:28:47;;;;;;;3.60;1.17;;;7.00;74.10;;;;;;5020285;28;20937;-70
2022/04/03 04:31:14;;;;;;;6.47;1.30;;;7.00;77.70;;;;;;5021767;28;20037;-69
2022/04/03 04:33:39;;;;;;;4.70;1.60;;;7.00;79.10;;;;;;5037529;28;20046;-69
2022/04/03 04:36:07;;;;;;;2.72;1.35;;;7.10;77.60;;;;;;5018020;28;20123;-68
2022/04/03 04:38:33;;;;;;;5.47;1.20;;;7.10;78.20;;;;;;5022531;28;20042;-68
2022/04/03 04:40:59;;;;;;;3.05;1.15;;;7.20;79.50;;;;;;5001143;28;20056;-69
2022/04/03 04:43:25;;;;;;;5.40;1.55;;;7.10;78.30;;;;;;5022098;28;20056;-68
2022/04/03 04:45:51;;;;;;;4.07;1.63;;;7.00;77.60;;;;;;5033398;28;20037;-69
2022/04/03 04:48:17;;;;;;;4.57;1.27;;;7.00;76.90;;;;;;5004026;28;20046;-69
2022/04/03 04:50:43;;;;;;;3.58;1.15;;;7.00;77.20;;;;;;5016449;28;20053;-69
2022/04/03 04:53:09;;;;;;;3.47;1.20;;;7.00;77.50;;;;;;5016452;28;20488;-70
2022/04/03 04:55:37;;;;;;;4.35;1.38;;;7.00;78.30;;;;;;5017873;28;20049;-68
2022/04/03 04:58:03;;;;;;;3.75;1.13;;;7.00;80.40;;;;;;5017975;28;20037;-69
2022/04/03 05:00:30;;;;;;;3.30;1.00;;;7.00;82.30;;;;;;5022411;28;20485;-69
2022/04/03 05:02:57;;;;;;;4.13;1.30;;;6.90;81.30;;;;;;5034182;28;20044;-69
2022/04/03 05:05:24;;;;;;;3.97;1.40;;;6.90;81.70;;;;;;4999777;28;20033;-69
2022/04/03 05:07:53;;;;;;;4.88;1.23;;;7.00;82.00;;;;;;5023892;28;20048;-69
2022/04/03 05:10:20;;;;;;;4.55;1.23;;;7.00;83.30;;;;;;5003430;28;20047;-69
2022/04/03 05:12:46;;;;;;;4.68;1.30;;;7.00;82.60;;;;;;5017148;28;20068;-68
2022/04/03 05:15:13;;;;;;;3.13;1.05;;;7.10;82.90;;;;;;5017812;28;20037;-69
2022/04/03 05:17:41;;;;;;;4.78;1.10;;;7.10;83.50;;;;;;5031906;28;20059;-69
2022/04/03 05:20:08;;;;;;;6.03;1.10;;;7.20;82.10;;;;;;5032449;28;20064;-68
2022/04/03 05:22:35;;;;;;;3.08;1.10;;;7.30;81.00;;;;;;5035752;28;20041;-69
2022/04/03 05:25:03;;;;;;;2.88;1.33;;;7.30;82.50;;;;;;5019534;28;20037;-69
2022/04/03 05:27:31;;;;;;;4.30;1.38;;;7.40;82.40;;;;;;5016265;28;20049;-69
2022/04/03 05:29:58;;;;;;;3.80;1.20;;;7.40;81.30;;;;;;4998281;28;20048;-69
2022/04/03 05:32:26;;;;;;;4.70;1.50;;;7.40;80.70;;;;;;5001043;28;20053;-69
2022/04/03 05:34:52;;;;;;;3.13;1.20;;;7.40;81.70;;;;;;5004056;28;20472;-69
2022/04/03 05:37:19;;;;;;;4.30;1.30;;;7.40;81.50;;;;;;5016809;28;20068;-69
2022/04/03 05:39:46;;;;;;;2.22;1.10;;;7.50;79.40;;;;;;4997077;28;20037;-69
2022/04/03 05:42:12;;;;;;;3.35;1.02;;;7.40;79.80;;;;;;5016137;28;20121;-70
2022/04/03 05:44:38;;;;;;;4.35;1.00;;;7.50;79.60;;;;;;5034535;28;20044;-70
2022/04/03 05:47:05;;;;;;;4.18;1.10;;;7.50;79.60;;;;;;5006821;28;20064;-68
2022/04/03 05:49:32;;;;;;;2.42;1.05;;;7.50;79.10;;;;;;5032564;28;20042;-68
2022/04/03 05:51:58;;;;;;;3.47;1.13;;;7.50;77.30;;;;;;5037950;28;20030;-69
2022/04/03 05:54:23;;;;;;;3.83;1.15;;;7.50;76.50;;;;;;5019632;28;20119;-70
2022/04/03 05:56:49;;;;;;;2.38;1.13;;;7.50;75.10;;;;;;4995364;28;20045;-69
2022/04/03 05:59:15;;;;;;;3.05;1.00;;;7.50;74.10;;;;;;5030904;28;20034;-69
2022/04/03 06:01:41;;;;;;;2.50;1.00;;;7.50;74.60;;;;;;4997953;28;20041;-69
2022/04/03 06:04:07;;;;;;;4.20;1.13;;;7.50;74.30;;;;;;5016939;28;20053;-69
2022/04/03 06:06:34;;;;;;;3.50;0.90;;;7.50;73.80;;;;;;5018194;28;20041;-70
2022/04/03 06:09:00;;;;;;;4.28;1.30;;;7.50;73.70;;;;;;5017817;28;20034;-70
2022/04/03 06:11:26;;;;;;;3.80;0.95;;;7.50;73.50;;;;;;5033408;28;20897;-69
2022/04/03 06:13:52;;;;;;;2.88;1.15;;;7.50;73.50;;;;;;5016028;28;20151;-69
2022/04/03 06:16:20;;;;;;;4.97;1.02;;;7.50;73.80;;;;;;5007107;28;20034;-69
2022/04/03 06:18:46;;;;;;;5.82;1.10;;;7.50;75.20;;;;;;5024321;28;20381;-69
2022/04/03 06:21:12;;;;;;;3.67;1.20;;;7.60;74.50;;;;;;5000961;28;20604;-70
2022/04/03 06:23:38;;;;;;;4.25;1.20;;;7.70;75.70;;;;;;5025729;28;20033;-69
2022/04/03 06:26:04;;;;;;;3.60;1.00;;;7.70;77.60;;;;;;5017655;28;20049;-69
2022/04/03 06:28:30;;;;;;;4.38;1.10;;;7.80;75.70;;;;;;5024042;28;20045;-69
2022/04/03 06:30:57;;;;;;;2.17;1.00;;;7.80;76.10;;;;;;5005449;28;20481;-69
2022/04/03 06:33:24;;;;;;;3.97;1.33;;;7.80;75.10;;;;;;5004462;28;20041;-69
2022/04/03 06:35:50;;;;;;;2.63;1.02;;;7.80;76.70;;;;;;5026685;28;20036;-69
2022/04/03 06:38:16;;;;;;;3.72;1.20;;;7.90;76.80;;;;;;5010758;28;20125;-70
2022/04/03 06:40:48;;;;;;;4.13;1.10;;;7.70;74.00;;;;;;5036842;28;20038;-69
2022/04/03 06:43:22;;;;;;;3.03;1.30;;;7.40;72.40;;;;;;4977313;28;20039;-70
2022/04/03 06:45:51;;;;;;;4.55;1.50;;;7.30;72.10;;;;;;5010413;28;20637;-71
2022/04/03 06:48:17;;;;;;;3.45;1.17;;;7.20;72.10;;;;;;5039074;28;20034;-70
2022/04/03 06:50:43;;;;;;;4.65;1.30;;;7.20;71.80;;;;;;5037789;28;20141;-69
2022/04/03 06:53:09;;;;;;;3.38;1.23;;;7.10;72.00;;;;;;5022103;28;20116;-69
2022/04/03 06:55:36;;;;;;;2.13;1.20;;;7.20;71.60;;;;;;5023225;28;20125;-70
2022/04/03 06:58:03;;;;;;;4.80;1.20;;;7.20;71.80;;;;;;4996300;28;20095;-69
2022/04/03 07:00:29;;;;;;;3.55;1.30;;;7.20;71.80;;;;;;5020761;28;20644;-69
2022/04/03 07:02:55;;;;;;;2.72;1.15;;;7.20;71.80;;;;;;5003437;28;20041;-69
2022/04/03 07:05:21;;;;;;;2.50;1.10;;;7.20;72.10;;;;;;5012023;28;20041;-69
2022/04/03 07:07:56;;;;;;;2.97;0.98;;;7.30;71.90;;;;;;5038081;28;20041;-69
2022/04/03 07:10:24;;;;;;;4.63;1.48;;;7.30;71.70;;;;;;5017896;28;21179;-70
2022/04/03 07:12:50;;;;;;;3.85;1.40;;;7.20;72.10;;;;;;4999594;28;20487;-69
2022/04/03 07:15:16;;;;;;;2.25;1.20;;;7.20;72.60;;;;;;5023560;28;20087;-70
2022/04/03 07:17:43;;;;;;;2.72;1.20;;;7.20;71.80;;;;;;5012829;28;20117;-70
2022/04/03 07:20:14;;;;;;;3.42;1.50;;;7.10;72.10;;;;;;5018447;28;20049;-69
2022/04/03 07:22:44;;;;;;;6.50;1.30;;;7.20;73.00;;;;;;5023247;28;20064;-70
2022/04/03 07:25:11;;;;;;;2.47;1.15;;;7.10;72.40;;;;;;5019899;28;20840;-70
2022/04/03 07:27:38;;;;;;;3.08;1.00;;;7.00;72.60;;;;;;5037354;28;20042;-69
2022/04/03 07:30:09;;;;;;;5.15;1.50;;;7.10;72.70;;;;;;5035169;28;20579;-70
2022/04/03 07:32:36;;;;;;;3.10;1.20;;;7.30;72.70;;;;;;5007053;28;20069;-68
2022/04/03 07:35:05;;;;;;;5.50;1.58;;;7.30;72.70;;;;;;4995844;28;20512;-70
2022/04/03 07:37:32;;;;;;;3.40;1.00;;;7.20;73.30;;;;;;4993502;28;20050;-70
2022/04/03 07:39:59;;;;;;;2.47;1.00;;;7.20;73.50;;;;;;5002566;28;20073;-69
2022/04/03 07:42:25;;;;;;;4.78;1.30;;;6.90;73.80;;;;;;4997896;28;20045;-69
2022/04/03 07:44:51;;;;;;;4.68;1.58;;;6.70;74.00;;;;;;4982592;28;20053;-68
2022/04/03 07:47:17;;;;;;;5.68;1.40;;;6.70;74.70;;;;;;5024953;28;20042;-70
2022/04/03 07:49:44;;;;;;;3.35;1.45;;;6.80;74.30;;;;;;5012449;28;20079;-70
2022/04/03 07:52:10;;;;;;;5.18;1.20;;;6.80;74.70;;;;;;5032740;28;20057;-70
2022/04/03 07:54:38;;;;;;;2.40;1.33;;;6.80;75.20;;;;;;5024123;28;20096;-70
2022/04/03 07:57:06;;;;;;;6.95;1.63;;;6.90;75.20;;;;;;5040287;28;20509;-69
2022/04/03 07:59:36;;;;;;;6.22;2.65;;;7.00;75.00;;;;;;5035502;28;20112;-69
2022/04/03 08:02:04;;;;;;;3.65;1.70;;;6.80;74.90;;;;;;5020323;28;20042;-69
2022/04/03 08:04:30;;;;;;;3.80;1.67;;;7.00;75.50;;;;;;5002085;28;20042;-71
2022/04/03 08:06:56;;;;;;;3.17;1.23;;;7.00;75.30;;;;;;5032518;28;20049;-70
2022/04/03 08:09:23;;;;;;;4.68;1.45;;;6.90;74.60;;;;;;5019968;28;25269;-69
2022/04/03 08:11:50;;;;;;;3.50;1.35;;;7.20;74.60;;;;;;5014256;28;20985;-71
2022/04/03 08:14:15;;;;;;;5.80;1.50;;;7.60;74.20;;;;;;5033038;28;20033;-69
2022/04/03 08:16:41;;;;;;;3.30;1.65;;;7.70;73.70;;;;;;5034404;28;20045;-70
2022/04/03 08:19:09;;;;;;;4.53;1.70;;;7.80;72.70;;;;;;5020219;28;20392;-70
2022/04/03 08:21:35;;;;;;;5.15;1.52;;;8.10;73.00;;;;;;5015142;28;20036;-70
2022/04/03 08:24:01;;;;;;;3.90;1.50;;;8.20;73.50;;;;;;5036980;28;20557;-71
2022/04/03 08:26:28;;;;;;;4.13;1.45;;;8.10;73.10;;;;;;5001767;28;20041;-69
2022/04/03 08:28:55;;;;;;;3.08;1.88;;;8.00;73.90;;;;;;5009507;28;20132;-70
2022/04/03 08:31:27;;;;;;;7.13;1.67;;;8.30;74.50;;;;;;5032166;28;20030;-69
2022/04/03 08:33:54;;;;;;;4.13;1.73;;;8.60;74.40;;;;;;5019046;28;20439;-70
2022/04/03 08:36:20;;;;;;;4.35;1.73;;;8.90;73.60;;;;;;5017546;28;20038;-69
2022/04/03 08:38:47;;;;;;;4.10;1.73;;;9.30;72.70;;;;;;5004643;28;20113;-70
2022/04/03 08:41:14;;;;;;;5.82;1.88;;;9.50;72.00;;;;;;5029085;28;20049;-69
2022/04/03 08:43:40;;;;;;;5.28;2.92;;;9.50;71.70;;;;;;5022266;28;20046;-71
2022/04/03 08:46:08;;;;;;;5.35;1.75;;;9.40;72.40;;;;;;5008492;28;20043;-72
2022/04/03 08:48:37;;;;;;;4.63;1.10;;;8.90;77.00;;;;;;5032492;28;20054;-72
2022/04/03 08:51:04;;;;;;;4.30;1.27;;;8.60;77.30;;;;;;5019910;28;20128;-71
2022/04/03 08:53:31;;;;;;;4.05;1.00;;;8.60;78.70;;;;;;5031917;28;20421;-70
2022/04/03 08:55:59;;;;;;;5.28;1.27;;;8.60;79.10;;;;;;5034382;28;20041;-71
2022/04/03 08:58:26;;;;;;;3.15;1.30;;;8.50;78.50;;;;;;4982624;28;20049;-70
2022/04/03 09:00:54;;;;;;;4.53;1.20;;;8.60;78.60;;;;;;5019593;28;20112;-71
2022/04/03 09:03:20;;;;;;;3.70;1.33;;;8.70;78.80;;;;;;5018259;28;20834;-69
2022/04/03 09:05:47;;;;;;;3.30;1.00;;;8.70;79.00;;;;;;5020794;28;20082;-69
2022/04/03 09:08:14;;;;;;;4.28;1.02;;;8.80;78.90;;;;;;5032892;28;20037;-69
2022/04/03 09:10:44;;;;;;;2.47;1.02;;;8.90;78.50;;;;;;5033801;28;20033;-71
2022/04/03 09:13:10;;;;;;;2.25;1.00;;;9.20;78.80;;;;;;5013902;28;20047;-70
2022/04/03 09:15:37;;;;;;;4.65;1.00;;;9.30;78.10;;;;;;5030411;28;20065;-69
2022/04/03 09:18:06;;;;;;;2.03;1.10;;;9.40;77.50;;;;;;5033429;28;20040;-70
2022/04/03 09:20:40;;;;;;;2.25;1.10;;;9.60;76.80;;;;;;5018235;28;20111;-70
2022/04/03 09:23:08;;;;;;;2.58;1.20;;;9.70;76.40;;;;;;5030399;28;20034;-69
2022/04/03 09:25:40;;;;;;;4.40;1.23;;;9.50;77.10;;;;;;5031603;28;20048;-69
2022/04/03 09:28:07;;;;;;;2.88;1.20;;;8.90;79.40;;;;;;5022674;28;20033;-70
2022/04/03 09:30:39;;;;;;;2.75;0.98;;;9.00;81.60;;;;;;5032590;28;20034;-70
2022/04/03 09:33:10;;;;;;;1.85;0.93;;;9.20;81.70;;;;;;4990866;28;20095;-70
2022/04/03 09:36:02;;;;;;;3.03;1.02;;;9.30;82.20;;;;;;5035478;28;20034;-70
2022/04/03 09:38:30;;;;;;;4.53;1.08;;;9.00;82.70;;;;;;5018596;28;20045;-71
2022/04/03 09:40:58;;;;;;;1.75;0.90;;;8.90;83.70;;;;;;5032353;28;20045;-70
2022/04/03 09:43:32;;;;;;;2.45;1.13;;;9.10;83.60;;;;;;5033237;28;20052;-70
2022/04/03 09:46:00;;;;;;;7.85;1.40;;;9.10;81.10;;;;;;5000586;28;20749;-71
2022/04/03 09:48:33;;;;;;;3.75;1.23;;;9.10;81.10;;;;;;5000313;28;20045;-71
2022/04/03 09:51:09;;;;;;;;;;;8.70;79.80;;;;;;5021284;28;20033;-71
2022/04/03 09:53:45;;;;;;;3.88;1.65;;;8.60;80.40;;;;;;5014236;28;19917;-71
2022/04/03 09:56:37;;;;;;;2.95;1.33;;;8.80;80.80;;;;;;4999456;28;20041;-72
2022/04/03 09:59:04;;;;;;;8.65;1.48;;;8.80;81.70;;;;;;5019735;28;20345;-72
2022/04/03 10:01:35;;;;;;;3.50;1.48;;;8.70;82.70;;;;;;5030858;28;20389;-72
2022/04/03 10:04:03;;;;;;;4.18;1.13;;;8.80;82.60;;;;;;5017971;28;20180;-72
2022/04/03 10:06:31;;;;;;;5.07;1.25;;;8.40;83.70;;;;;;5014831;28;20168;-74
2022/04/03 10:09:01;;;;;;;4.03;1.10;;;8.50;84.30;;;;;;5019617;28;20095;-73
2022/04/03 10:11:29;;;;;;;5.65;1.40;;;8.40;84.20;;;;;;5019837;28;20038;-72
2022/04/03 10:13:56;;;;;;;5.72;1.60;;;8.40;84.80;;;;;;5019331;28;20042;-70
2022/04/03 10:16:26;;;;;;;2.65;1.10;;;8.40;84.40;;;;;;5017945;28;20494;-72
2022/04/03 10:18:53;;;;;;;4.88;1.73;;;8.30;84.20;;;;;;5028248;28;20468;-72
2022/04/03 10:21:51;;;;;;;4.57;1.27;;;8.40;84.50;;;;;;5030687;28;20034;-72
2022/04/03 10:24:25;;;;;;;4.88;1.33;;;8.10;85.30;;;;;;5021093;28;20041;-70
2022/04/03 10:27:05;;;;;;;;;;;8.00;87.00;;;;;;5038096;28;20124;-72
2022/04/03 10:29:37;;;;;;;2.25;1.08;;;8.00;89.20;;;;;;5014235;28;20423;-71
2022/04/03 10:32:04;;;;;;;4.97;1.45;;;8.10;89.80;;;;;;5006906;28;20098;-71
2022/04/03 10:34:44;;;;;;;6.45;2.50;;;8.00;91.30;;;;;;5006771;28;20107;-70
2022/04/03 10:37:26;;;;;;;2.30;1.42;;;7.80;91.50;;;;;;5007976;28;20049;-70
2022/04/03 10:39:54;;;;;;;6.13;1.60;;;7.90;91.40;;;;;;5005911;28;20640;-73
2022/04/03 10:42:26;;;;;;;7.03;1.17;;;7.90;91.50;;;;;;5018276;28;20038;-71
2022/04/03 10:45:26;;;;;;;3.80;0.90;;;7.60;91.90;;;;;;5000893;28;20050;-71
2022/04/03 10:48:21;;;;;;;3.63;1.45;;;7.70;91.80;;;;;;4997454;28;20057;-73
2022/04/03 10:50:58;;;;;;;1.90;1.05;;;7.80;91.60;;;;;;5023645;28;20045;-73
2022/04/03 10:53:27;;;;;;;3.95;1.58;;;7.80;91.60;;;;;;5005293;28;20086;-72
2022/04/03 10:55:55;;;;;;;40.53;24.80;;;8.00;91.60;;;;;;5012511;28;20040;-73
2022/04/03 10:58:22;;;;;;;9.13;5.05;;;8.20;91.30;;;;;;5019786;28;20471;-72
2022/04/03 11:00:52;;;;;;;7.13;1.60;;;8.40;90.80;;;;;;5006173;28;20131;-72
2022/04/03 11:03:17;;;;;;;4.65;1.35;;;8.30;90.60;;;;;;5031672;28;20076;-73
2022/04/03 11:05:50;;;;;;;4.05;1.80;;;8.10;90.90;;;;;;5000733;28;20038;-73
2022/04/03 11:08:19;;;;;;;3.30;1.30;;;8.00;91.50;;;;;;4998748;28;20042;-73
2022/04/03 11:10:57;;;;;;;4.85;1.73;;;7.80;91.60;;;;;;5040878;28;20073;-74
2022/04/03 11:13:29;;;;;;;4.97;1.77;;;7.70;92.80;;;;;;5017988;28;20030;-71
2022/04/03 11:16:00;;;;;;;5.43;1.45;;;7.30;94.80;;;;;;5020541;28;20042;-75
2022/04/03 11:18:34;;;;;;;2.58;1.20;;;7.10;97.50;;;;;;5001108;28;20051;-74
2022/04/03 11:21:22;;;;;;;4.15;1.65;;;6.80;98.70;;;;;;5036695;28;20045;-74
2022/04/03 11:24:07;;;;;;;4.63;1.58;;;6.80;99.40;;;;;;5003502;28;20726;-73
2022/04/03 11:26:35;;;;;;;3.03;1.42;;;6.70;99.90;;;;;;5034788;28;20469;-71
2022/04/03 11:29:02;;;;;;;5.30;2.13;;;6.50;99.90;;;;;;5035668;28;20057;-72
2022/04/03 11:31:29;;;;;;;9.15;4.53;;;6.70;99.90;;;;;;5025158;28;20045;-71
2022/04/03 11:33:57;;;;;;;6.00;1.27;;;6.70;99.90;;;;;;5006847;28;20049;-71
2022/04/03 11:36:28;;;;;;;8.05;1.30;;;6.10;99.90;;;;;;5016385;28;20085;-72
2022/04/03 11:38:55;;;;;;;4.38;1.30;;;5.90;99.90;;;;;;5008941;28;20041;-71
2022/04/03 11:41:30;;;;;;;6.03;1.52;;;5.90;99.90;;;;;;5010831;28;20041;-74
2022/04/03 11:43:59;;;;;;;6.80;1.92;;;5.90;99.90;;;;;;5037125;28;20037;-71
2022/04/03 11:46:26;;;;;;;2.97;1.48;;;6.40;99.90;;;;;;5021469;28;20155;-70
2022/04/03 11:48:52;;;;;;;4.30;1.60;;;6.40;99.90;;;;;;5003073;28;20050;-73
2022/04/03 11:51:20;;;;;;;3.78;1.50;;;6.30;99.90;;;;;;5033750;28;20446;-70
2022/04/03 11:54:00;;;;;;;3.35;1.60;;;6.50;99.90;;;;;;5012134;28;20216;-72
2022/04/03 11:56:29;;;;;;;5.50;1.92;;;6.50;99.90;;;;;;5037617;28;20064;-73
2022/04/03 11:59:11;;;;;;;4.22;1.80;;;6.70;99.90;;;;;;5017029;28;20537;-71
2022/04/03 12:01:49;;;;;;;4.50;1.42;;;6.80;99.90;;;;;;5020872;28;20097;-71
2022/04/03 12:04:17;;;;;;;5.30;1.90;;;6.60;99.90;;;;;;5000138;28;20119;-75
2022/04/03 12:06:47;;;;;;;5.70;1.67;;;6.50;99.90;;;;;;5022707;28;20137;-71
2022/04/03 12:09:21;;;;;;;4.97;1.92;;;6.10;99.90;;;;;;5017718;28;20041;-71
2022/04/03 12:11:53;;;;;;;5.05;1.42;;;5.90;99.90;;;;;;5021055;28;20038;-71
2022/04/03 12:14:33;;;;;;;5.03;2.08;;;5.80;99.90;;;;;;5037033;28;20034;-72
2022/04/03 12:17:01;;;;;;;5.55;2.20;;;5.70;99.90;;;;;;5034805;28;20045;-71
2022/04/03 12:19:35;;;;;;;4.03;1.95;;;5.70;99.90;;;;;;5037151;28;20741;-71
2022/04/03 12:22:04;;;;;;;3.85;1.92;;;5.60;99.90;;;;;;5034587;28;20034;-71
2022/04/03 12:24:32;;;;;;;5.03;1.92;;;5.70;99.90;;;;;;5039498;28;20057;-71
2022/04/03 12:27:12;;;;;;;3.95;1.80;;;5.70;99.90;;;;;;5020666;28;20034;-71
2022/04/03 12:29:39;;;;;;;4.70;1.75;;;5.60;99.90;;;;;;4999542;28;20088;-70
2022/04/03 12:32:12;;;;;;;6.53;1.98;;;5.50;99.90;;;;;;5019222;28;20042;-70
2022/04/03 12:34:46;;;;;;;;;;;5.60;99.90;;;;;;5016044;28;20040;-71
2022/04/03 12:37:13;;;;;;;6.50;2.60;;;5.60;99.90;;;;;;5011797;28;19920;-72
2022/04/03 12:39:50;;;;;;;5.38;2.08;;;5.80;99.90;;;;;;5019013;28;20061;-72
2022/04/03 12:42:25;;;;;;;7.05;2.05;;;5.80;99.90;;;;;;4998215;28;20037;-71
2022/04/03 12:45:05;;;;;;;3.28;1.90;;;5.90;99.90;;;;;;5019334;28;20043;-72
2022/04/03 12:47:37;;;;;;;3.65;1.70;;;6.00;99.90;;;;;;5028880;28;20052;-72
2022/04/03 12:50:06;;;;;;;5.00;2.20;;;6.10;99.90;;;;;;5021967;28;20401;-72
2022/04/03 12:52:51;;;;;;;8.40;2.78;;;6.00;99.90;;;;;;5001715;28;20052;-72
2022/04/03 12:55:24;;;;;;;5.55;1.83;;;5.90;99.90;;;;;;5004300;28;20054;-74
2022/04/03 12:58:24;;;;;;;;;;;5.80;99.90;;;;;;5036460;28;20388;-73
2022/04/03 13:01:15;;;;;;;6.85;3.63;;;5.80;99.90;;;;;;5016864;28;19917;-72
2022/04/03 13:03:46;;;;;;;5.45;2.55;;;5.90;99.90;;;;;;5020556;28;20045;-72
2022/04/03 13:06:25;;;;;;;5.07;1.92;;;6.00;99.90;;;;;;5016974;28;20040;-73